Terminal Aerodrome Forecast
Issued by NWS Missoula, MT

Home | Current Version | Previous Version | Text Only | Print | Product List | Glossary On
Versions: 1 2 3 4 5 6 7 8 9 10 11 12 13 14 15 16 17 18
000
FTUS45 KMSO 220539
TAFGPI
TAF
KGPI 220539Z 2206/2306 VRB03KT 2SM -FZRA BR SCT020 OVC040
     FM220800 VRB05KT 3SM -SN BR SCT010 OVC025
     FM221700 24011G25KT 6SM -SHSN BKN040
     FM222300 25009KT 4SM BR OVC040=

USA.gov is the U.S. government's official web portal to all federal, state and local government web resources and services.